Skip to main content

NOAA/GLERL Met Station at Chicago, IL

Previous 3 Hours (2 minute increments)
See also Previous 5 Days (top of hour)
Jump down to Data
Switch to [English][Metric]
Zoom: Click and drag, Pan: shift-click and drag, Unzoom: double-click, Unzoom All




See also 1-day windrose plot


NOAA/GLERL Met Station at Chicago, IL

Previous 3 Hours (2 minute increments)
See also Previous 5 Days (top of hour only)
Jump up to Graphs
Switch to [English][Metric]
                  Wind  Wind  Wind   Air   Dew   Rel
                   Spd   Gst   Dir  Temp    Pt   Hum
YYYY-MM-DD   CDT   kts   kts   deg     F     F     %
2019-10-14 14:20   5.4   6.6   243  50.7  30.8  46.1
2019-10-14 14:18   5.4   8.4   253  50.9  31.9  47.7
2019-10-14 14:16   2.7   3.7   247  50.9  32.4  48.8
2019-10-14 14:14   2.7   3.9   219  50.7  32.4  49.1
2019-10-14 14:12   1.9   2.7   245  50.7  31.4  47.2
2019-10-14 14:10   2.5   3.5   234  50.5  31.4  47.5
2019-10-14 14:08   2.9   3.9   235  50.5  31.5  47.7
2019-10-14 14:06   3.5   4.3   237  50.2  31.1  47.5
2019-10-14 14:04   4.5   5.6   254  50.0  31.1  47.8
2019-10-14 14:02   5.6   7.0   265  50.0  31.1  47.8
2019-10-14 14:00   7.2   8.6   264  50.2  31.2  47.8
2019-10-14 13:58   8.4  10.5   257  50.0  30.9  47.4
2019-10-14 13:56  11.3  13.0   257  50.0  31.7  49.0
2019-10-14 13:54  11.1  12.6   262  50.2  31.3  47.9
2019-10-14 13:52   5.8   8.7   241  50.4  31.5  47.9
2019-10-14 13:50   6.0   8.7   257  50.2  32.4  50.0
2019-10-14 13:48   8.0   9.7   266  50.2  32.4  50.1
2019-10-14 13:46   5.8   9.5   251  50.0  30.9  47.5
2019-10-14 13:44   6.4   8.6   247  49.8  31.7  49.4
2019-10-14 13:42   7.8   9.5   280  49.8  31.7  49.4
2019-10-14 13:40   6.6   8.2   261  49.6  31.3  49.0
2019-10-14 13:38   8.6  10.1   262  49.6  30.8  47.9
2019-10-14 13:36  10.7  13.6   271  49.6  30.8  48.0
2019-10-14 13:34  11.1  12.4   269  49.6  31.6  49.5
2019-10-14 13:32   9.9  12.2   263  49.5  32.1  50.9
2019-10-14 13:30   8.4  11.7   285  49.3  31.6  50.2
2019-10-14 13:28  11.9  15.0   254  49.3  31.3  49.5
2019-10-14 13:26  10.9  12.4   260  49.5  31.2  49.1
2019-10-14 13:24  11.7  13.2   249  49.3  30.1  47.2
2019-10-14 13:22  12.2  14.4   238  49.3  30.5  48.0
2019-10-14 13:20  10.9  13.4   261  49.5  32.1  50.9
2019-10-14 13:18  11.1  14.2   244  49.5  31.9  50.4
2019-10-14 13:16   9.7  14.4   274  49.3  31.8  50.6
2019-10-14 13:14   9.3  10.9   273  49.3  31.3  49.6
2019-10-14 13:12   5.8   8.2   268  49.3  31.6  50.2
2019-10-14 13:10   5.4   7.2   242  48.7  30.3  48.5
2019-10-14 13:08   8.0   9.1   245  48.7  30.3  48.6
2019-10-14 13:06   8.2  10.7   250  48.7  30.1  48.1
2019-10-14 13:04   8.7   9.7   243  48.7  31.0  49.9
2019-10-14 13:02   9.1  11.9   270  48.6  31.0  50.4
2019-10-14 13:00   7.6   9.1   269  48.6  30.1  48.5
2019-10-14 12:58   9.3  11.7   288  48.4  29.8  48.3
2019-10-14 12:56  11.3  13.2   279  48.4  29.8  48.3
2019-10-14 12:54  10.9  15.7   278  48.4  30.4  49.4
2019-10-14 12:52   8.7  10.1   284  48.4  30.4  49.5
2019-10-14 12:50   8.9  10.1   278  48.2  31.4  51.8
2019-10-14 12:48  10.7  11.7   280  48.2  30.7  50.4
2019-10-14 12:46  11.3  12.8   280  48.4  31.6  51.9
2019-10-14 12:44  13.4  15.0   272  48.2  31.3  51.7
2019-10-14 12:42  10.7  14.8   271  48.0  30.1  49.6
2019-10-14 12:40  11.1  13.0   270  48.0  29.7  48.7
2019-10-14 12:38  10.9  13.2   278  48.0  31.4  52.2
2019-10-14 12:36   7.4  10.9   279  47.8  30.1  49.9
2019-10-14 12:34   8.4  10.1   277  47.8  30.5  50.7
2019-10-14 12:32   9.7  11.3   282  47.8  29.8  49.3
2019-10-14 12:30   9.5  11.7   277  47.8  30.5  50.6
2019-10-14 12:28  11.9  14.0   258  47.7  30.0  50.0
2019-10-14 12:26  10.9  14.6   266  47.8  30.6  50.9
2019-10-14 12:24   7.8   9.1   286  47.7  30.5  51.0
2019-10-14 12:22  12.2  13.6   267  47.7  29.6  49.1
2019-10-14 12:20  11.5  13.6   268  47.7  30.0  50.0
2019-10-14 12:18  10.3  13.0   269  47.5  28.5  47.4
2019-10-14 12:16  10.7  12.8   281  47.5  30.0  50.4
2019-10-14 12:14  10.9  11.9   288  47.3  29.3  49.3
2019-10-14 12:12  12.6  15.9   292  47.5  29.0  48.3
2019-10-14 12:10  13.0  14.8   286  47.5  29.7  49.8
2019-10-14 12:08   9.5  12.4   273  47.7  30.3  50.6
2019-10-14 12:06   9.5  11.3   273  47.5  30.6  51.5
2019-10-14 12:04   9.7  11.1   275  47.3  29.6  49.8
2019-10-14 12:02   8.9  11.5   278  47.1  29.1  49.1
2019-10-14 12:00   9.7  11.9   291  47.1  28.7  48.3
2019-10-14 11:58   7.2   9.5   282  47.3  30.7  52.1
2019-10-14 11:56   8.2   9.3   264  47.3  29.8  50.3
2019-10-14 11:54   9.9  11.3   282  47.1  29.5  50.1
2019-10-14 11:52   9.9  11.1   283  47.1  29.5  50.0
2019-10-14 11:50  10.5  12.1   268  46.9  28.2  47.7
2019-10-14 11:48   9.7  12.8   261  46.9  29.3  50.0
2019-10-14 11:46   7.0   9.9   270  46.9  30.8  53.0
2019-10-14 11:44   8.0   9.3   274  46.8  30.2  52.1
2019-10-14 11:42   8.6  10.7   277  46.6  29.0  50.0
2019-10-14 11:40   8.7  10.7   281  46.6  28.4  48.7
2019-10-14 11:38  10.9  11.5   284  46.6  28.4  48.8
2019-10-14 11:36  12.4  14.2   283  46.6  28.7  49.3
2019-10-14 11:34   9.7  11.3   268  46.4  28.2  48.7
2019-10-14 11:32  10.7  11.7   275  46.4  28.5  49.4
2019-10-14 11:30  10.7  13.6   274  46.4  29.0  50.4
2019-10-14 11:28   7.4   8.4   268  46.4  30.8  54.2
2019-10-14 11:26   7.8   8.9   257  46.2  30.3  53.4
2019-10-14 11:24   7.6   9.3   247  45.9  29.5  52.4
2019-10-14 11:22  10.5  12.2   240  46.2  29.9  52.6
2019-10-14 11:20   8.7  10.7   260  46.4  31.8  56.4